createdAt,value
2022-09-04T00:00:11.961Z,98248.91
2022-09-04T00:03:00.870Z,98248.37
2022-09-04T00:05:37.281Z,98249.41
2022-09-04T00:08:11.901Z,98252.88
2022-09-04T00:10:55.744Z,98250.22
2022-09-04T00:13:52.535Z,98247.97
2022-09-04T00:16:25.525Z,98242.94
2022-09-04T00:19:04.034Z,98243.81
2022-09-04T00:21:36.542Z,98247.13
2022-09-04T00:24:06.194Z,98251.62
2022-09-04T00:26:58.505Z,98248.34
2022-09-04T00:29:43.867Z,98254.56
2022-09-04T00:32:20.094Z,98255.84
2022-09-04T00:35:05.217Z,98251.47
2022-09-04T00:37:39.624Z,98257.47
2022-09-04T00:40:18.023Z,98254.78
2022-09-04T00:43:12.812Z,98256.00
2022-09-04T00:45:58.798Z,98260.25
2022-09-04T00:49:21.422Z,98256.63
2022-09-04T00:52:09.243Z,98250.38
2022-09-04T00:55:02.803Z,98258.63
2022-09-04T00:58:02.092Z,98259.91
2022-09-04T01:00:30.463Z,98264.00
2022-09-04T01:03:04.069Z,98251.38
2022-09-04T01:05:45.701Z,98257.56
2022-09-04T01:08:30.735Z,98261.59
2022-09-04T01:11:04.044Z,98255.94
2022-09-04T01:13:34.097Z,98260.25
2022-09-04T01:16:08.090Z,98253.09
2022-09-04T01:18:46.477Z,98259.59
2022-09-04T01:21:39.031Z,98258.00
2022-09-04T01:24:27.432Z,98254.13
2022-09-04T01:27:05.869Z,98255.06
2022-09-04T01:30:08.223Z,98268.38
2022-09-04T01:32:48.897Z,98263.81
2022-09-04T01:35:35.760Z,98265.53
2022-09-04T01:38:25.645Z,98262.31
2022-09-04T01:41:14.522Z,98258.03
2022-09-04T01:43:41.636Z,98265.81
2022-09-04T01:46:14.776Z,98268.16
2022-09-04T01:49:02.801Z,98261.38
2022-09-04T01:52:11.854Z,98267.94
2022-09-04T01:54:48.561Z,98270.84
2022-09-04T01:57:58.480Z,98271.03
2022-09-04T02:00:25.919Z,98278.00
2022-09-04T02:03:03.951Z,98281.72
2022-09-04T02:05:49.559Z,98281.16
2022-09-04T02:08:49.846Z,98283.31
2022-09-04T02:11:28.044Z,98271.94
2022-09-04T02:14:11.472Z,98280.78
2022-09-04T02:16:42.930Z,98270.31
2022-09-04T02:19:45.323Z,98275.28
2022-09-04T02:22:46.163Z,98268.13
2022-09-04T02:25:35.468Z,98272.94
2022-09-04T02:28:08.661Z,98268.13
2022-09-04T02:31:10.281Z,98272.13
2022-09-04T02:33:54.870Z,98267.22
2022-09-04T02:36:28.148Z,98266.38
2022-09-04T02:39:01.656Z,98263.94
2022-09-04T02:41:52.995Z,98267.72
2022-09-04T02:44:38.733Z,98274.69
2022-09-04T02:47:18.600Z,98272.38
2022-09-04T02:49:52.129Z,98263.56
2022-09-04T02:52:41.431Z,98277.47
2022-09-04T02:55:45.759Z,98271.59
2022-09-04T02:58:20.193Z,98262.97
2022-09-04T03:01:04.127Z,98266.94
2022-09-04T03:03:34.067Z,98269.94
2022-09-04T03:06:13.698Z,98272.47
2022-09-04T03:09:09.299Z,98269.28
2022-09-04T03:11:41.007Z,98272.72
2022-09-04T03:14:34.716Z,98278.25
2022-09-04T03:17:47.795Z,98280.09
2022-09-04T03:20:20.352Z,98284.81
2022-09-04T03:23:28.745Z,98293.09
2022-09-04T03:26:05.434Z,98296.19
2022-09-04T03:28:45.845Z,98299.16
2022-09-04T03:31:32.609Z,98296.19
2022-09-04T03:34:23.291Z,98290.59
2022-09-04T03:37:05.726Z,98293.69
2022-09-04T03:40:02.298Z,98300.59
2022-09-04T03:42:31.888Z,98304.16
2022-09-04T03:45:11.038Z,98308.81
2022-09-04T03:48:05.792Z,98311.84
2022-09-04T03:50:38.418Z,98311.94
2022-09-04T03:53:19.333Z,98317.59
2022-09-04T03:56:07.066Z,98312.41
2022-09-04T03:58:46.786Z,98314.97
2022-09-04T04:01:33.814Z,98318.34
2022-09-04T04:04:16.967Z,98317.41
2022-09-04T04:06:53.089Z,98305.56
2022-09-04T04:10:10.506Z,98315.56
2022-09-04T04:12:56.985Z,98305.31
2022-09-04T04:15:27.900Z,98312.38
2022-09-04T04:18:01.382Z,98310.72
2022-09-04T04:20:58.390Z,98312.72
2022-09-04T04:24:06.800Z,98319.50
2022-09-04T04:27:04.224Z,98314.47
2022-09-04T04:29:49.357Z,98322.75
2022-09-04T04:32:24.557Z,98329.41
2022-09-04T04:35:11.646Z,98335.53
2022-09-04T04:38:06.962Z,98335.03
2022-09-04T04:41:00.902Z,98348.09
2022-09-04T04:43:30.750Z,98353.72
2022-09-04T04:46:29.414Z,98355.81
2022-09-04T04:49:17.813Z,98357.88
2022-09-04T04:52:16.971Z,98363.44
2022-09-04T04:55:05.505Z,98366.91
2022-09-04T04:57:32.396Z,98371.41
2022-09-04T05:00:27.786Z,98376.50
2022-09-04T05:03:46.201Z,98373.53
2022-09-04T05:06:36.223Z,98378.56
2022-09-04T05:09:09.179Z,98385.50
2022-09-04T05:12:17.078Z,98377.28
2022-09-04T05:14:53.015Z,98381.38
2022-09-04T05:17:56.898Z,98387.00
2022-09-04T05:20:33.471Z,98381.59
2022-09-04T05:23:37.189Z,98390.38
2022-09-04T05:26:38.158Z,98394.03
2022-09-04T05:29:13.478Z,98396.69
2022-09-04T05:31:58.299Z,98398.13
2022-09-04T05:34:37.015Z,98399.41
2022-09-04T05:37:35.483Z,98413.28
2022-09-04T05:40:22.535Z,98412.66
2022-09-04T05:42:54.579Z,98413.78
2022-09-04T05:45:36.217Z,98414.06
2022-09-04T05:48:24.783Z,98413.03
2022-09-04T05:51:13.725Z,98413.88
2022-09-04T05:54:05.093Z,98413.31
2022-09-04T05:56:39.461Z,98412.09
2022-09-04T05:59:18.936Z,98407.50
2022-09-04T06:02:01.916Z,98406.88
2022-09-04T06:04:34.699Z,98411.38
2022-09-04T06:08:03.185Z,98399.41
2022-09-04T06:11:07.308Z,98407.09
2022-09-04T06:13:55.720Z,98407.16
2022-09-04T06:16:47.451Z,98407.81
2022-09-04T06:19:23.532Z,98400.25
2022-09-04T06:21:56.510Z,98407.59
2022-09-04T06:24:41.940Z,98409.34
2022-09-04T06:27:27.187Z,98429.84
2022-09-04T06:30:12.943Z,98436.81
2022-09-04T06:33:05.568Z,98436.38
2022-09-04T06:35:52.187Z,98440.25
2022-09-04T06:38:34.076Z,98435.44
2022-09-04T06:41:22.772Z,98443.31
2022-09-04T06:43:58.626Z,98436.31
2022-09-04T06:46:40.924Z,98449.19
2022-09-04T06:49:27.310Z,98452.03
2022-09-04T06:52:07.724Z,98460.47
2022-09-04T06:54:40.856Z,98466.59
2022-09-04T06:57:32.676Z,98474.34
2022-09-04T07:00:04.784Z,98473.25
2022-09-04T07:02:54.624Z,98466.50
2022-09-04T07:05:45.158Z,98474.88
2022-09-04T07:08:24.162Z,98480.19
2022-09-04T07:11:12.790Z,98479.41
2022-09-04T07:13:57.752Z,98484.41
2022-09-04T07:16:27.621Z,98477.31
2022-09-04T07:19:03.617Z,98476.50
2022-09-04T07:21:49.665Z,98478.41
2022-09-04T07:24:38.897Z,98466.78
2022-09-04T07:27:42.645Z,98473.66
2022-09-04T07:30:12.688Z,98473.09
2022-09-04T07:33:10.456Z,98472.09
2022-09-04T07:35:57.437Z,98483.41
2022-09-04T07:38:31.061Z,98493.75
2022-09-04T07:41:20.193Z,98497.38
2022-09-04T07:44:14.348Z,98502.78
2022-09-04T07:46:57.807Z,98508.84
2022-09-04T07:50:00.916Z,98510.78
2022-09-04T07:52:38.701Z,98513.28
2022-09-04T07:55:09.188Z,98514.94
2022-09-04T07:58:03.696Z,98505.06
2022-09-04T08:00:55.526Z,98506.81
2022-09-04T08:03:37.428Z,98514.00
2022-09-04T08:06:36.232Z,98515.25
2022-09-04T08:09:25.395Z,98509.56
2022-09-04T08:12:08.136Z,98514.28
2022-09-04T08:14:46.059Z,98519.78
2022-09-04T08:17:28.132Z,98526.28
2022-09-04T08:20:17.752Z,98533.41
2022-09-04T08:23:13.922Z,98534.22
2022-09-04T08:26:20.407Z,98528.41
2022-09-04T08:29:12.749Z,98525.16
2022-09-04T08:31:43.630Z,98526.38
2022-09-04T08:34:25.697Z,98531.06
2022-09-04T08:37:06.683Z,98531.56
2022-09-04T08:39:56.002Z,98543.25
2022-09-04T08:42:38.985Z,98531.16
2022-09-04T08:45:24.307Z,98534.53
2022-09-04T08:48:12.317Z,98537.69
2022-09-04T08:51:05.238Z,98537.13
2022-09-04T08:54:03.874Z,98541.44
2022-09-04T08:56:38.121Z,98528.16
2022-09-04T08:59:20.364Z,98533.66
2022-09-04T09:02:14.474Z,98533.41
2022-09-04T09:05:15.907Z,98532.97
2022-09-04T09:08:20.414Z,98540.22
2022-09-04T09:11:03.237Z,98540.22
2022-09-04T09:13:51.906Z,98540.41
2022-09-04T09:16:40.137Z,98537.06
2022-09-04T09:19:11.424Z,98543.41
2022-09-04T09:21:50.719Z,98548.62
2022-09-04T09:24:24.610Z,98547.56
2022-09-04T09:27:09.759Z,98557.69
2022-09-04T09:30:08.873Z,98555.34
2022-09-04T09:32:54.383Z,98559.47
2022-09-04T09:35:51.762Z,98552.84
2022-09-04T09:38:35.024Z,98553.31
2022-09-04T09:41:20.656Z,98567.28
2022-09-04T09:44:15.502Z,98568.44
2022-09-04T09:47:27.407Z,98562.69
2022-09-04T09:50:20.952Z,98554.00
2022-09-04T09:53:17.959Z,98548.72
2022-09-04T09:56:08.517Z,98556.97
2022-09-04T09:58:50.974Z,98560.78
2022-09-04T10:01:20.863Z,98557.94
2022-09-04T10:03:53.704Z,98560.59
2022-09-04T10:06:53.319Z,98560.28
2022-09-04T10:09:29.238Z,98566.97
2022-09-04T10:12:02.235Z,98564.28
2022-09-04T10:15:09.085Z,98570.69
2022-09-04T10:17:50.838Z,98568.09
2022-09-04T10:20:46.429Z,98566.56
2022-09-04T10:23:40.919Z,98564.09
2022-09-04T10:26:35.359Z,98559.09
2022-09-04T10:29:32.739Z,98570.22
2022-09-04T10:32:05.610Z,98570.78
2022-09-04T10:35:15.256Z,98580.25
2022-09-04T10:38:12.999Z,98571.66
2022-09-04T10:41:15.128Z,98579.75
2022-09-04T10:43:58.327Z,98572.34
2022-09-04T10:46:30.223Z,98571.53
2022-09-04T10:49:30.616Z,98571.19
2022-09-04T10:52:06.681Z,98572.50
2022-09-04T10:54:51.064Z,98579.31
2022-09-04T10:57:37.524Z,98577.53
2022-09-04T11:00:14.649Z,98574.97
2022-09-04T11:03:13.961Z,98573.09
2022-09-04T11:06:11.285Z,98571.91
2022-09-04T11:09:15.433Z,98574.66
2022-09-04T11:11:53.679Z,98575.66
2022-09-04T11:14:39.092Z,98569.28
2022-09-04T11:17:28.703Z,98583.84
2022-09-04T11:20:37.012Z,98570.34
2022-09-04T11:23:23.321Z,98564.09
2022-09-04T11:26:27.836Z,98559.84
2022-09-04T11:29:00.746Z,98565.31
2022-09-04T11:31:30.508Z,98562.88
2022-09-04T11:34:23.114Z,98564.72
2022-09-04T11:37:15.623Z,98566.88
2022-09-04T11:39:51.791Z,98559.38
2022-09-04T11:42:28.543Z,98561.31
2022-09-04T11:45:16.902Z,98560.75
2022-09-04T11:48:05.690Z,98568.75
2022-09-04T11:50:38.492Z,98569.94
2022-09-04T11:53:30.462Z,98572.16
2022-09-04T11:56:36.455Z,98575.03
2022-09-04T11:59:11.031Z,98571.59
2022-09-04T12:02:20.305Z,98564.81
2022-09-04T12:05:08.877Z,98564.44
2022-09-04T12:07:45.040Z,98561.75
2022-09-04T12:10:30.879Z,98569.91
2022-09-04T12:13:15.852Z,98565.19
2022-09-04T12:15:55.861Z,98563.00
2022-09-04T12:18:34.975Z,98557.78
2022-09-04T12:21:26.719Z,98552.72
2022-09-04T12:23:59.357Z,98554.88
2022-09-04T12:26:33.660Z,98562.63
2022-09-04T12:29:22.821Z,98565.88
2022-09-04T12:32:25.515Z,98558.75
2022-09-04T12:35:10.728Z,98556.81
2022-09-04T12:37:56.489Z,98554.84
2022-09-04T12:40:31.379Z,98553.84
2022-09-04T12:43:07.090Z,98554.56
2022-09-04T12:45:55.414Z,98544.87
2022-09-04T12:48:28.026Z,98546.88
2022-09-04T12:51:12.908Z,98540.03
2022-09-04T12:53:57.678Z,98545.25
2022-09-04T12:56:28.057Z,98550.19
2022-09-04T12:58:59.514Z,98539.75
2022-09-04T13:01:40.981Z,98548.59
2022-09-04T13:04:30.554Z,98532.13
2022-09-04T13:07:28.549Z,98531.00
2022-09-04T13:10:13.608Z,98531.13
2022-09-04T13:13:08.342Z,98533.09
2022-09-04T13:15:54.180Z,98527.25
2022-09-04T13:18:39.496Z,98522.34
2022-09-04T13:21:17.645Z,98523.28
2022-09-04T13:24:04.077Z,98524.81
2022-09-04T13:26:57.016Z,98516.66
2022-09-04T13:29:53.136Z,98519.00
2022-09-04T13:32:35.162Z,98515.41
2022-09-04T13:35:39.700Z,98510.72
2022-09-04T13:38:09.308Z,98523.63
2022-09-04T13:41:05.110Z,98516.53
2022-09-04T13:43:41.679Z,98519.72
2022-09-04T13:46:13.357Z,98518.69
2022-09-04T13:48:43.968Z,98515.88
2022-09-04T13:51:16.093Z,98521.84
2022-09-04T13:53:58.980Z,98527.16
2022-09-04T13:56:34.991Z,98525.38
2022-09-04T13:59:09.638Z,98527.00
2022-09-04T14:01:46.333Z,98519.72
2022-09-04T14:04:39.617Z,98521.13
2022-09-04T14:07:11.696Z,98525.81
2022-09-04T14:09:42.917Z,98529.50
2022-09-04T14:12:16.597Z,98529.91
2022-09-04T14:15:20.870Z,98531.59
2022-09-04T14:18:05.507Z,98532.56
2022-09-04T14:20:40.756Z,98527.34
2022-09-04T14:23:20.558Z,98533.12
2022-09-04T14:26:04.420Z,98533.69
2022-09-04T14:28:41.678Z,98533.78
2022-09-04T14:31:34.121Z,98536.09
2022-09-04T14:34:13.922Z,98532.59
2022-09-04T14:36:56.703Z,98523.66
2022-09-04T14:39:44.344Z,98529.03
2022-09-04T14:42:30.005Z,98529.47
2022-09-04T14:45:23.562Z,98528.50
2022-09-04T14:47:55.057Z,98536.16
2022-09-04T14:50:30.486Z,98543.22
2022-09-04T14:53:01.192Z,98543.91
2022-09-04T14:55:30.471Z,98535.72
2022-09-04T14:58:19.806Z,98547.44
2022-09-04T15:00:59.351Z,98544.38
2022-09-04T15:03:32.308Z,98541.59
2022-09-04T15:06:02.485Z,98549.34
2022-09-04T15:08:39.940Z,98548.81
2022-09-04T15:11:30.979Z,98553.00
2022-09-04T15:14:05.183Z,98551.44
2022-09-04T15:16:32.114Z,98544.72
2022-09-04T15:19:08.990Z,98557.53
2022-09-04T15:21:44.913Z,98554.75
2022-09-04T15:24:27.670Z,98553.72
2022-09-04T15:27:20.752Z,98551.25
2022-09-04T15:29:53.644Z,98551.03
2022-09-04T15:32:39.871Z,98550.69
2022-09-04T15:35:23.147Z,98548.91
2022-09-04T15:38:07.742Z,98548.41
2022-09-04T15:40:59.663Z,98553.03
2022-09-04T15:43:31.480Z,98552.37
2022-09-04T15:46:06.196Z,98556.03
2022-09-04T15:48:53.676Z,98563.34
2022-09-04T15:51:37.677Z,98556.03
2022-09-04T15:54:33.633Z,98554.31
2022-09-04T15:57:17.550Z,98547.75
2022-09-04T16:00:00.990Z,98548.22
2022-09-04T16:02:43.185Z,98545.56
2022-09-04T16:05:36.263Z,98553.09
2022-09-04T16:08:22.039Z,98555.69
2022-09-04T16:11:04.392Z,98550.12
2022-09-04T16:13:58.303Z,98549.44
2022-09-04T16:16:29.280Z,98557.34
2022-09-04T16:19:25.676Z,98557.78
2022-09-04T16:22:26.519Z,98560.63
2022-09-04T16:25:11.973Z,98555.28
2022-09-04T16:27:45.089Z,98553.66
2022-09-04T16:30:30.359Z,98559.31
2022-09-04T16:32:58.618Z,98558.69
2022-09-04T16:35:25.946Z,98560.75
2022-09-04T16:37:59.466Z,98564.19
2022-09-04T16:40:59.081Z,98571.94
2022-09-04T16:43:34.763Z,98576.94
2022-09-04T16:46:13.755Z,98575.56
2022-09-04T16:48:55.312Z,98573.91
2022-09-04T16:51:40.320Z,98582.66
2022-09-04T16:54:12.117Z,98579.53
2022-09-04T16:56:50.354Z,98591.37
2022-09-04T16:59:38.164Z,98589.75
2022-09-04T17:02:37.735Z,98587.41
2022-09-04T17:05:40.189Z,98585.81
2022-09-04T17:08:18.706Z,98591.78
2022-09-04T17:11:22.374Z,98588.25
2022-09-04T17:13:52.385Z,98590.34
2022-09-04T17:16:24.263Z,98593.91
2022-09-04T17:18:55.799Z,98595.44
2022-09-04T17:22:33.248Z,98599.09
2022-09-04T17:28:54.532Z,98601.44
2022-09-04T17:29:16.884Z,98597.31
2022-09-04T17:30:45.333Z,98599.56
2022-09-04T17:36:50.630Z,98593.13
2022-09-04T17:40:53.993Z,98595.84
2022-09-04T17:41:29.613Z,98607.97
2022-09-04T17:42:32.658Z,98611.88
2022-09-04T17:45:00.367Z,98615.00
2022-09-04T17:47:33.320Z,98629.87
2022-09-04T17:50:02.037Z,98627.78
2022-09-04T17:52:32.806Z,98633.41
2022-09-04T17:55:12.075Z,98639.97
2022-09-04T17:58:15.277Z,98634.03
2022-09-04T18:01:15.662Z,98646.13
2022-09-04T18:04:21.997Z,98647.75
2022-09-04T18:06:57.791Z,98651.22
2022-09-04T18:09:41.215Z,98657.00
2022-09-04T18:12:19.493Z,98658.16
2022-09-04T18:15:32.419Z,98660.53
2022-09-04T18:18:22.327Z,98662.47
2022-09-04T18:20:55.653Z,98666.09
2022-09-04T18:23:46.014Z,98679.72
2022-09-04T18:26:23.348Z,98675.97
2022-09-04T18:31:07.257Z,98678.56
2022-09-04T18:37:15.826Z,98685.19
2022-09-04T18:37:25.849Z,98688.25
2022-09-04T18:38:19.787Z,98693.44
2022-09-04T18:44:08.713Z,98698.53
2022-09-04T18:50:23.982Z,98696.53
2022-09-04T18:50:37.436Z,98717.16
2022-09-04T18:50:41.120Z,98704.91
2022-09-04T18:52:48.795Z,98706.50
2022-09-04T18:55:42.907Z,98715.91
2022-09-04T18:58:12.746Z,98717.22
2022-09-04T19:00:53.433Z,98716.03
2022-09-04T19:03:42.131Z,98709.12
2022-09-04T19:06:15.424Z,98725.41
2022-09-04T19:08:52.080Z,98721.34
2022-09-04T19:11:42.604Z,98727.00
2022-09-04T19:14:19.632Z,98725.97
2022-09-04T19:16:55.869Z,98729.59
2022-09-04T19:19:50.887Z,98732.03
2022-09-04T19:22:38.065Z,98729.19
2022-09-04T19:25:21.374Z,98736.97
2022-09-04T19:27:58.535Z,98742.44
2022-09-04T19:30:27.339Z,98741.34
2022-09-04T19:33:03.049Z,98750.03
2022-09-04T19:35:42.148Z,98746.34
2022-09-04T19:41:42.976Z,98750.47
2022-09-04T19:45:54.984Z,98754.50
2022-09-04T19:46:17.656Z,98753.34
2022-09-04T19:47:09.373Z,98747.69
2022-09-04T19:53:18.120Z,98742.28
2022-09-04T19:53:34.184Z,98754.16
2022-09-04T19:56:19.575Z,98753.09
2022-09-04T19:58:52.598Z,98756.13
2022-09-04T20:01:44.600Z,98743.59
2022-09-04T20:04:28.059Z,98744.50
2022-09-04T20:06:59.483Z,98746.31
2022-09-04T20:09:37.685Z,98749.34
2022-09-04T20:12:13.479Z,98754.62
2022-09-04T20:14:51.464Z,98750.41
2022-09-04T20:18:04.185Z,98749.78
2022-09-04T20:20:37.547Z,98751.16
2022-09-04T20:23:51.881Z,98748.34
2022-09-04T20:26:42.809Z,98743.53
2022-09-04T20:29:23.741Z,98755.56
2022-09-04T20:32:04.344Z,98763.69
2022-09-04T20:34:34.078Z,98760.16
2022-09-04T20:37:19.497Z,98766.13
2022-09-04T20:40:16.875Z,98765.53
2022-09-04T20:42:56.735Z,98756.06
2022-09-04T20:49:35.203Z,98754.81
2022-09-04T20:52:55.659Z,98748.56
2022-09-04T20:52:59.018Z,98751.03
2022-09-04T20:54:56.231Z,98751.87
2022-09-04T21:03:13.055Z,98758.59
2022-09-04T21:03:22.836Z,98760.91
2022-09-04T21:03:35.158Z,98766.50
2022-09-04T21:06:18.216Z,98773.03
2022-09-04T21:09:07.634Z,98766.03
2022-09-04T21:11:39.185Z,98767.94
2022-09-04T21:14:45.166Z,98763.84
2022-09-04T21:17:38.898Z,98775.28
2022-09-04T21:20:30.636Z,98768.56
2022-09-04T21:23:11.613Z,98770.12
2022-09-04T21:26:15.872Z,98772.31
2022-09-04T21:28:59.705Z,98774.50
2022-09-04T21:32:01.318Z,98773.00
2022-09-04T21:34:55.011Z,98769.53
2022-09-04T21:37:34.167Z,98772.09
2022-09-04T21:40:51.793Z,98772.50
2022-09-04T21:43:36.227Z,98782.78
2022-09-04T21:46:34.911Z,98781.09
2022-09-04T21:49:29.760Z,98778.81
2022-09-04T21:52:06.367Z,98785.06
2022-09-04T21:55:29.854Z,98785.78
2022-09-04T22:02:32.575Z,98790.03
2022-09-04T22:02:37.648Z,98781.37
2022-09-04T22:04:35.572Z,98785.91
2022-09-04T22:10:33.769Z,98787.81
2022-09-04T22:13:40.855Z,98790.13
2022-09-04T22:13:43.378Z,98783.34
2022-09-04T22:16:41.988Z,98790.91
2022-09-04T22:19:33.918Z,98792.56
2022-09-04T22:22:14.105Z,98786.69
2022-09-04T22:25:04.487Z,98787.19
2022-09-04T22:28:07.549Z,98791.28
2022-09-04T22:31:05.447Z,98781.75
2022-09-04T22:34:20.143Z,98784.22
2022-09-04T22:37:06.699Z,98787.47
2022-09-04T22:39:43.035Z,98781.34
2022-09-04T22:42:34.468Z,98781.50
2022-09-04T22:45:10.499Z,98781.47
2022-09-04T22:47:53.498Z,98783.97
2022-09-04T22:50:48.989Z,98783.41
2022-09-04T22:53:36.789Z,98789.75
2022-09-04T22:56:23.310Z,98783.03
2022-09-04T22:58:55.788Z,98782.06
2022-09-04T23:02:13.650Z,98789.50
2022-09-04T23:05:03.527Z,98795.47
2022-09-04T23:13:42.273Z,98797.37
2022-09-04T23:13:48.166Z,98792.91
2022-09-04T23:14:03.085Z,98800.69
2022-09-04T23:16:34.331Z,98799.34
2022-09-04T23:21:10.570Z,98800.75
2022-09-04T23:26:44.143Z,98803.84
2022-09-04T23:26:44.994Z,98792.47
2022-09-04T23:28:48.463Z,98796.41
2022-09-04T23:31:41.522Z,98794.00
2022-09-04T23:34:42.637Z,98796.63
2022-09-04T23:38:00.621Z,98796.97
2022-09-04T23:40:35.856Z,98802.28
2022-09-04T23:43:24.230Z,98797.47
2022-09-04T23:46:13.539Z,98796.44
2022-09-04T23:49:25.129Z,98791.53
2022-09-04T23:51:57.578Z,98791.81
2022-09-04T23:54:50.506Z,98791.94
2022-09-04T23:57:27.290Z,98784.59
